createdAt,value
2022-09-15T00:01:20.515Z,19.70
2022-09-15T00:04:21.972Z,19.68
2022-09-15T00:07:24.152Z,19.53
2022-09-15T00:10:26.815Z,19.56
2022-09-15T00:13:28.303Z,19.67
2022-09-15T00:16:31.705Z,19.71
2022-09-15T00:19:33.280Z,19.54
2022-09-15T00:22:35.261Z,19.44
2022-09-15T00:25:41.533Z,19.41
2022-09-15T00:28:43.644Z,19.37
2022-09-15T00:31:45.177Z,19.49
2022-09-15T00:34:46.587Z,19.41
2022-09-15T00:37:47.984Z,19.38
2022-09-15T00:40:52.830Z,19.52
2022-09-15T00:43:57.894Z,19.54
2022-09-15T00:47:18.192Z,19.55
2022-09-15T00:50:20.945Z,19.48
2022-09-15T00:53:24.812Z,19.33
2022-09-15T00:56:27.008Z,19.41
2022-09-15T00:59:31.680Z,19.20
2022-09-15T01:02:35.768Z,19.21
2022-09-15T01:05:46.276Z,19.24
2022-09-15T01:09:03.421Z,19.32
2022-09-15T01:12:05.662Z,19.29
2022-09-15T01:15:08.338Z,19.35
2022-09-15T01:18:24.660Z,19.43
2022-09-15T01:21:48.069Z,19.36
2022-09-15T01:25:20.541Z,19.35
2022-09-15T01:28:47.081Z,19.21
2022-09-15T01:32:25.336Z,19.21
2022-09-15T01:35:34.540Z,19.21
2022-09-15T01:38:51.776Z,19.31
2022-09-15T01:41:58.878Z,19.11
2022-09-15T01:45:15.256Z,19.16
2022-09-15T01:48:24.527Z,19.17
2022-09-15T01:51:28.345Z,19.17
2022-09-15T01:54:35.884Z,19.20
2022-09-15T01:57:37.325Z,19.20
2022-09-15T02:00:43.820Z,19.13
2022-09-15T02:03:57.824Z,19.09
2022-09-15T02:07:11.525Z,19.09
2022-09-15T02:10:26.882Z,19.15
2022-09-15T02:14:10.462Z,19.20
2022-09-15T02:17:14.879Z,19.06
2022-09-15T02:20:33.237Z,19.04
2022-09-15T02:23:40.627Z,19.16
2022-09-15T02:26:43.188Z,19.19
2022-09-15T02:29:47.738Z,19.10
2022-09-15T02:32:56.130Z,19.01
2022-09-15T02:35:58.597Z,18.97
2022-09-15T02:39:05.497Z,18.99
2022-09-15T02:42:07.387Z,18.95
2022-09-15T02:45:09.325Z,19.04
2022-09-15T02:48:10.757Z,19.10
2022-09-15T02:51:12.309Z,19.03
2022-09-15T02:54:13.757Z,19.02
2022-09-15T02:57:15.267Z,19.02
2022-09-15T03:00:19.016Z,19.08
2022-09-15T03:03:21.969Z,19.04
2022-09-15T03:06:23.961Z,19.03
2022-09-15T03:09:25.291Z,19.04
2022-09-15T03:12:26.689Z,19.02
2022-09-15T03:15:28.143Z,19.05
2022-09-15T03:18:30.400Z,19.10
2022-09-15T03:21:31.819Z,18.97
2022-09-15T03:24:33.669Z,19.09
2022-09-15T03:27:35.468Z,19.03
2022-09-15T03:30:36.902Z,18.99
2022-09-15T03:33:38.724Z,19.03
2022-09-15T03:36:41.151Z,19.02
2022-09-15T03:39:42.553Z,19.11
2022-09-15T03:42:43.955Z,19.10
2022-09-15T03:45:45.457Z,19.06
2022-09-15T03:48:49.738Z,19.10
2022-09-15T03:51:51.600Z,19.12
2022-09-15T03:54:53.005Z,19.09
2022-09-15T03:57:54.871Z,19.03
2022-09-15T04:00:56.929Z,18.99
2022-09-15T04:03:58.768Z,18.84
2022-09-15T04:07:00.241Z,18.94
2022-09-15T04:10:01.965Z,18.93
2022-09-15T04:13:03.379Z,18.79
2022-09-15T04:16:09.769Z,18.76
2022-09-15T04:19:11.703Z,18.58
2022-09-15T04:22:17.558Z,18.63
2022-09-15T04:25:19.337Z,18.63
2022-09-15T04:28:20.744Z,18.56
2022-09-15T04:31:22.359Z,18.57
2022-09-15T04:34:24.594Z,18.54
2022-09-15T04:37:26.073Z,18.49
2022-09-15T04:40:27.547Z,18.43
2022-09-15T04:43:28.984Z,18.57
2022-09-15T04:46:30.959Z,18.63
2022-09-15T04:49:32.444Z,18.58
2022-09-15T04:52:33.836Z,18.56
2022-09-15T04:55:35.885Z,18.54
2022-09-15T04:58:38.400Z,18.64
2022-09-15T05:01:40.182Z,18.63
2022-09-15T05:04:41.611Z,18.55
2022-09-15T05:07:43.008Z,18.57
2022-09-15T05:10:44.496Z,18.60
2022-09-15T05:13:46.192Z,18.58
2022-09-15T05:16:47.607Z,18.61
2022-09-15T05:19:49.145Z,18.62
2022-09-15T05:22:50.534Z,18.49
2022-09-15T05:25:59.786Z,18.60
2022-09-15T05:29:01.264Z,18.52
2022-09-15T05:32:02.678Z,18.53
2022-09-15T05:35:06.384Z,18.59
2022-09-15T05:38:07.789Z,18.59
2022-09-15T05:41:15.969Z,18.49
2022-09-15T05:44:17.532Z,18.44
2022-09-15T05:47:19.038Z,18.49
2022-09-15T05:50:20.620Z,18.49
2022-09-15T05:53:23.246Z,18.48
2022-09-15T05:56:24.660Z,18.47
2022-09-15T05:59:26.067Z,18.50
2022-09-15T06:02:27.491Z,18.29
2022-09-15T06:05:29.321Z,18.35
2022-09-15T06:08:50.035Z,18.37
2022-09-15T06:11:54.442Z,18.49
2022-09-15T06:14:56.649Z,18.49
2022-09-15T06:17:58.403Z,18.61
2022-09-15T06:21:10.955Z,18.54
2022-09-15T06:24:12.521Z,18.39
2022-09-15T06:27:13.909Z,18.46
2022-09-15T06:30:15.898Z,18.33
2022-09-15T06:33:17.313Z,18.37
2022-09-15T06:36:20.971Z,18.42
2022-09-15T06:39:22.363Z,18.38
2022-09-15T06:42:23.800Z,18.24
2022-09-15T06:45:25.221Z,18.29
2022-09-15T06:48:26.690Z,18.36
2022-09-15T06:51:31.290Z,18.38
2022-09-15T06:54:32.772Z,18.39
2022-09-15T06:57:34.275Z,18.35
2022-09-15T07:00:35.702Z,18.35
2022-09-15T07:03:38.968Z,18.29
2022-09-15T07:06:40.490Z,18.19
2022-09-15T07:09:43.467Z,18.30
2022-09-15T07:12:47.444Z,18.29
2022-09-15T07:16:00.197Z,18.25
2022-09-15T07:19:03.586Z,18.42
2022-09-15T07:22:05.316Z,18.40
2022-09-15T07:25:06.935Z,18.33
2022-09-15T07:28:08.333Z,18.46
2022-09-15T07:31:13.182Z,18.43
2022-09-15T07:34:14.675Z,18.53
2022-09-15T07:37:16.201Z,18.64
2022-09-15T07:40:18.704Z,18.60
2022-09-15T07:43:20.327Z,18.62
2022-09-15T07:46:23.732Z,18.73
2022-09-15T07:49:25.208Z,18.63
2022-09-15T07:52:26.628Z,18.64
2022-09-15T07:55:28.224Z,18.72
2022-09-15T07:58:29.843Z,18.76
2022-09-15T08:01:31.298Z,18.77
2022-09-15T08:04:32.808Z,18.78
2022-09-15T08:07:34.241Z,19.02
2022-09-15T08:10:39.882Z,19.14
2022-09-15T08:13:41.327Z,19.20
2022-09-15T08:16:42.776Z,19.20
2022-09-15T08:19:44.264Z,19.14
2022-09-15T08:22:46.155Z,19.17
2022-09-15T08:25:47.786Z,19.16
2022-09-15T08:28:49.220Z,19.22
2022-09-15T08:31:50.667Z,19.33
2022-09-15T08:34:52.116Z,19.21
2022-09-15T08:37:55.118Z,19.09
2022-09-15T08:41:04.385Z,19.05
2022-09-15T08:44:08.723Z,18.98
2022-09-15T08:47:17.559Z,19.03
2022-09-15T08:50:27.360Z,18.92
2022-09-15T08:53:34.413Z,18.73
2022-09-15T08:56:37.053Z,18.75
2022-09-15T08:59:39.925Z,18.89
2022-09-15T09:02:58.094Z,18.95
2022-09-15T09:06:26.279Z,18.96
2022-09-15T09:09:36.557Z,18.79
2022-09-15T09:12:55.301Z,18.87
2022-09-15T09:16:04.528Z,18.92
2022-09-15T09:19:43.766Z,18.93
2022-09-15T09:22:48.563Z,18.82
2022-09-15T09:25:50.858Z,19.10
2022-09-15T09:29:00.598Z,19.19
2022-09-15T09:32:03.436Z,19.27
2022-09-15T09:35:24.134Z,19.27
2022-09-15T09:38:30.651Z,19.44
2022-09-15T09:41:36.402Z,19.43
2022-09-15T09:44:40.328Z,19.34
2022-09-15T09:47:42.800Z,19.17
2022-09-15T09:50:44.603Z,19.14
2022-09-15T09:53:53.811Z,19.04
2022-09-15T09:57:16.695Z,18.98
2022-09-15T10:00:39.681Z,19.03
2022-09-15T10:03:43.213Z,19.04
2022-09-15T10:06:45.125Z,19.14
2022-09-15T10:09:58.565Z,19.10
2022-09-15T10:13:03.008Z,19.19
2022-09-15T10:16:06.559Z,19.20
2022-09-15T10:19:13.998Z,19.28
2022-09-15T10:22:36.178Z,19.04
2022-09-15T10:29:15.803Z,19.02
2022-09-15T10:32:25.545Z,18.85
2022-09-15T10:35:32.728Z,18.87
2022-09-15T10:38:56.156Z,18.10
2022-09-15T10:42:25.322Z,16.98
2022-09-15T10:45:33.938Z,16.00
2022-09-15T10:48:43.914Z,15.82
2022-09-15T10:52:01.338Z,16.19
2022-09-15T10:55:51.086Z,15.81
2022-09-15T10:59:04.533Z,16.15
2022-09-15T11:02:24.820Z,16.01
2022-09-15T11:05:37.492Z,15.99
2022-09-15T11:09:00.781Z,16.07
2022-09-15T11:12:20.040Z,16.10
2022-09-15T11:15:38.037Z,15.98
2022-09-15T11:19:04.356Z,16.03
2022-09-15T11:22:14.431Z,15.92
2022-09-15T11:25:19.142Z,15.83
2022-09-15T11:28:28.176Z,15.87
2022-09-15T11:31:42.026Z,16.15
2022-09-15T11:34:55.093Z,16.35
2022-09-15T11:38:03.280Z,16.51
2022-09-15T11:41:23.421Z,16.59
2022-09-15T11:44:32.838Z,16.58
2022-09-15T11:47:42.488Z,16.69
2022-09-15T11:50:48.982Z,16.30
2022-09-15T11:54:00.520Z,16.72
2022-09-15T11:57:02.018Z,17.03
2022-09-15T12:00:06.997Z,16.73
2022-09-15T12:03:32.518Z,16.33
2022-09-15T12:06:54.191Z,16.78
2022-09-15T12:10:03.754Z,16.77
2022-09-15T12:13:05.764Z,17.18
2022-09-15T12:16:08.268Z,16.89
2022-09-15T12:19:40.107Z,16.96
2022-09-15T12:22:49.432Z,16.99
2022-09-15T12:26:14.248Z,16.91
2022-09-15T12:29:21.737Z,16.68
2022-09-15T12:32:34.789Z,16.86
2022-09-15T12:35:36.441Z,17.24
2022-09-15T12:38:37.846Z,17.53
2022-09-15T12:42:01.167Z,17.92
2022-09-15T12:45:24.326Z,17.66
2022-09-15T12:48:32.461Z,17.79
2022-09-15T12:51:33.864Z,17.66
2022-09-15T12:54:37.662Z,17.71
2022-09-15T12:57:39.057Z,17.84
2022-09-15T13:01:06.842Z,18.08
2022-09-15T13:04:05.668Z,18.07
2022-09-15T13:07:16.096Z,17.73
2022-09-15T13:10:34.575Z,17.63
2022-09-15T13:13:43.904Z,17.99
2022-09-15T13:16:54.745Z,18.08
2022-09-15T13:20:01.997Z,18.38
2022-09-15T13:23:08.499Z,18.11
2022-09-15T13:26:17.693Z,18.30
2022-09-15T13:29:21.010Z,18.35
2022-09-15T13:32:34.457Z,18.48
2022-09-15T13:35:56.733Z,18.59
2022-09-15T13:39:01.166Z,18.40
2022-09-15T13:42:28.707Z,18.41
2022-09-15T13:46:11.985Z,18.52
2022-09-15T13:49:38.407Z,18.48
2022-09-15T13:53:06.064Z,18.74
2022-09-15T13:56:11.603Z,18.56
2022-09-15T13:59:30.476Z,18.77
2022-09-15T14:02:32.120Z,18.92
2022-09-15T14:05:35.885Z,18.48
2022-09-15T14:08:38.832Z,18.41
2022-09-15T14:11:42.341Z,18.67
2022-09-15T14:14:53.602Z,18.80
2022-09-15T14:17:55.693Z,18.29
2022-09-15T14:20:58.639Z,18.29
2022-09-15T14:24:20.292Z,18.58
2022-09-15T14:27:28.905Z,18.73
2022-09-15T14:30:32.166Z,18.73
2022-09-15T14:33:38.306Z,18.88
2022-09-15T14:36:40.819Z,18.81
2022-09-15T14:39:49.295Z,18.84
2022-09-15T14:42:51.347Z,18.93
2022-09-15T14:45:57.288Z,19.03
2022-09-15T14:49:09.709Z,18.88
2022-09-15T14:52:24.089Z,18.75
2022-09-15T14:55:29.049Z,18.64
2022-09-15T14:58:41.930Z,18.94
2022-09-15T15:01:48.866Z,19.12
2022-09-15T15:05:05.981Z,18.75
2022-09-15T15:08:12.707Z,18.65
2022-09-15T15:11:17.936Z,18.67
2022-09-15T15:14:19.700Z,18.71
2022-09-15T15:17:36.609Z,18.32
2022-09-15T15:20:49.304Z,18.31
2022-09-15T15:23:50.765Z,18.57
2022-09-15T15:26:52.980Z,18.47
2022-09-15T15:29:54.662Z,18.75
2022-09-15T15:32:59.496Z,18.94
2022-09-15T15:36:05.343Z,19.10
2022-09-15T15:39:19.736Z,18.75
2022-09-15T15:42:21.351Z,18.98
2022-09-15T15:45:25.942Z,18.85
2022-09-15T15:48:36.837Z,18.79
2022-09-15T15:51:40.005Z,18.83
2022-09-15T15:54:42.194Z,18.34
2022-09-15T15:57:46.672Z,18.93
2022-09-15T16:00:49.889Z,19.07
2022-09-15T16:03:51.353Z,18.96
2022-09-15T16:06:52.868Z,18.98
2022-09-15T16:09:54.994Z,18.92
2022-09-15T16:12:56.546Z,19.01
2022-09-15T16:16:00.224Z,18.89
2022-09-15T16:19:01.926Z,18.90
2022-09-15T16:22:05.435Z,18.92
2022-09-15T16:25:35.691Z,18.91
2022-09-15T16:28:37.124Z,18.88
2022-09-15T16:31:38.642Z,18.85
2022-09-15T16:34:40.085Z,18.77
2022-09-15T16:37:41.536Z,18.95
2022-09-15T16:40:43.031Z,18.88
2022-09-15T16:43:46.455Z,18.84
2022-09-15T16:46:48.010Z,18.77
2022-09-15T16:49:51.228Z,18.76
2022-09-15T16:52:52.908Z,18.50
2022-09-15T16:55:57.535Z,18.58
2022-09-15T16:59:00.709Z,18.55
2022-09-15T17:02:02.695Z,18.63
2022-09-15T17:05:20.164Z,18.66
2022-09-15T17:08:24.581Z,18.50
2022-09-15T17:11:26.667Z,18.48
2022-09-15T17:14:28.250Z,18.42
2022-09-15T17:17:29.749Z,18.15
2022-09-15T17:20:34.737Z,18.17
2022-09-15T17:23:41.157Z,18.12
2022-09-15T17:26:42.691Z,18.04
2022-09-15T17:29:44.770Z,17.95
2022-09-15T17:32:46.823Z,18.07
2022-09-15T17:35:49.502Z,18.26
2022-09-15T17:38:50.957Z,18.38
2022-09-15T17:41:52.571Z,18.46
2022-09-15T17:44:54.041Z,18.56
2022-09-15T17:47:55.910Z,18.53
2022-09-15T17:50:57.510Z,18.51
2022-09-15T17:53:58.908Z,18.48
2022-09-15T17:57:00.348Z,18.48
2022-09-15T18:00:02.025Z,18.41
2022-09-15T18:03:23.841Z,18.32
2022-09-15T18:06:25.237Z,18.12
2022-09-15T18:09:26.654Z,18.20
2022-09-15T18:12:28.086Z,18.22
2022-09-15T18:15:32.599Z,18.23
2022-09-15T18:18:34.208Z,18.31
2022-09-15T18:21:35.874Z,18.35
2022-09-15T18:24:37.278Z,18.30
2022-09-15T18:27:38.679Z,18.24
2022-09-15T18:30:42.472Z,18.23
2022-09-15T18:33:43.910Z,18.27
2022-09-15T18:36:45.332Z,18.26
2022-09-15T18:39:46.795Z,18.25
2022-09-15T18:42:48.225Z,18.13
2022-09-15T18:45:50.370Z,17.98
2022-09-15T18:48:52.314Z,17.94
2022-09-15T18:51:53.721Z,17.89
2022-09-15T18:54:55.287Z,17.95
2022-09-15T18:58:00.853Z,17.87
2022-09-15T19:01:03.012Z,17.85
2022-09-15T19:04:04.491Z,17.91
2022-09-15T19:07:05.953Z,17.95
2022-09-15T19:10:08.096Z,17.95
2022-09-15T19:13:11.511Z,17.90
2022-09-15T19:16:13.033Z,17.87
2022-09-15T19:19:14.799Z,17.82
2022-09-15T19:22:16.401Z,17.93
2022-09-15T19:25:17.861Z,17.96
2022-09-15T19:28:19.574Z,17.90
2022-09-15T19:31:21.717Z,17.92
2022-09-15T19:34:23.493Z,17.92
2022-09-15T19:37:24.991Z,17.78
2022-09-15T19:40:26.774Z,17.81
2022-09-15T19:43:28.789Z,17.80
2022-09-15T19:46:30.991Z,17.84
2022-09-15T19:49:32.412Z,17.80
2022-09-15T19:52:33.807Z,17.76
2022-09-15T19:55:35.269Z,17.79
2022-09-15T19:58:36.736Z,17.77
2022-09-15T20:01:38.204Z,17.75
2022-09-15T20:04:39.990Z,17.71
2022-09-15T20:07:41.448Z,17.63
2022-09-15T20:10:42.980Z,17.60
2022-09-15T20:13:45.063Z,17.55
2022-09-15T20:16:46.426Z,17.52
2022-09-15T20:19:47.950Z,17.55
2022-09-15T20:22:49.413Z,17.48
2022-09-15T20:25:58.590Z,17.48
2022-09-15T20:29:01.893Z,17.54
2022-09-15T20:32:03.370Z,17.48
2022-09-15T20:35:05.228Z,17.31
2022-09-15T20:38:06.752Z,17.34
2022-09-15T20:41:09.735Z,17.32
2022-09-15T20:44:11.741Z,17.32
2022-09-15T20:47:13.184Z,17.28
2022-09-15T20:50:17.041Z,17.16
2022-09-15T20:53:18.521Z,17.01
2022-09-15T20:56:24.686Z,17.01
2022-09-15T20:59:26.117Z,17.02
2022-09-15T21:02:27.893Z,16.82
2022-09-15T21:05:29.321Z,16.84
2022-09-15T21:08:30.868Z,16.98
2022-09-15T21:11:32.326Z,16.88
2022-09-15T21:14:33.725Z,16.85
2022-09-15T21:17:35.990Z,16.90
2022-09-15T21:20:37.495Z,16.95
2022-09-15T21:24:06.195Z,16.99
2022-09-15T21:27:26.050Z,16.96
2022-09-15T21:30:27.511Z,17.11
2022-09-15T21:33:29.305Z,16.97
2022-09-15T21:36:31.583Z,17.01
2022-09-15T21:39:33.004Z,16.94
2022-09-15T21:42:34.587Z,16.95
2022-09-15T21:45:37.056Z,16.95
2022-09-15T21:48:39.255Z,16.55
2022-09-15T21:51:40.715Z,16.71
2022-09-15T21:54:43.326Z,16.91
2022-09-15T21:57:44.734Z,16.81
2022-09-15T22:00:47.493Z,16.89
2022-09-15T22:03:54.072Z,16.93
2022-09-15T22:06:55.517Z,16.89
2022-09-15T22:09:56.942Z,16.92
2022-09-15T22:12:58.413Z,16.92
2022-09-15T22:16:04.401Z,16.96
2022-09-15T22:19:07.143Z,17.04
2022-09-15T22:22:08.801Z,17.00
2022-09-15T22:25:11.040Z,16.89
2022-09-15T22:28:12.473Z,16.80
2022-09-15T22:31:16.081Z,16.81
2022-09-15T22:34:17.632Z,16.82
2022-09-15T22:37:19.434Z,16.74
2022-09-15T22:40:20.933Z,16.78
2022-09-15T22:43:23.250Z,16.79
2022-09-15T22:46:25.009Z,16.74
2022-09-15T22:49:27.424Z,16.73
2022-09-15T22:52:28.841Z,16.69
2022-09-15T22:55:31.468Z,16.62
2022-09-15T22:58:37.315Z,16.60
2022-09-15T23:01:38.857Z,16.36
2022-09-15T23:04:40.318Z,16.31
2022-09-15T23:07:41.721Z,16.51
2022-09-15T23:10:43.139Z,16.42
2022-09-15T23:13:44.623Z,16.42
2022-09-15T23:16:46.109Z,16.21
2022-09-15T23:19:47.566Z,16.41
2022-09-15T23:22:49.105Z,16.48
2022-09-15T23:25:50.999Z,16.50
2022-09-15T23:28:52.944Z,16.53
2022-09-15T23:31:54.745Z,16.55
2022-09-15T23:34:56.484Z,16.54
2022-09-15T23:37:59.033Z,16.51
2022-09-15T23:41:00.469Z,16.47
2022-09-15T23:44:02.952Z,16.44
2022-09-15T23:47:04.496Z,16.44
2022-09-15T23:50:06.205Z,16.45
2022-09-15T23:53:07.995Z,16.38
2022-09-15T23:56:09.391Z,16.29
2022-09-15T23:59:10.799Z,16.19
